createdAt,value
2019-05-25T00:00:21.259Z,7.60
2019-05-25T00:02:52.326Z,7.35
2019-05-25T00:05:25.660Z,6.78
2019-05-25T00:07:59.584Z,7.05
2019-05-25T00:10:33.725Z,6.78
2019-05-25T00:13:03.867Z,6.40
2019-05-25T00:15:34.755Z,6.55
2019-05-25T00:18:04.911Z,6.12
2019-05-25T00:20:36.455Z,6.62
2019-05-25T00:23:09.224Z,6.78
2019-05-25T00:25:40.750Z,6.83
2019-05-25T00:28:11.200Z,7.40
2019-05-25T00:30:43.611Z,7.35
2019-05-25T00:33:14.096Z,7.42
2019-05-25T00:35:44.309Z,6.70
2019-05-25T00:38:14.557Z,6.03
2019-05-25T00:40:44.753Z,6.85
2019-05-25T00:43:14.331Z,7.00
2019-05-25T00:45:47.471Z,6.62
2019-05-25T00:48:17.643Z,6.85
2019-05-25T00:50:47.738Z,7.03
2019-05-25T00:53:17.957Z,7.03
2019-05-25T00:55:48.156Z,8.60
2019-05-25T00:58:18.468Z,7.05
2019-05-25T01:00:50.024Z,7.25
2019-05-25T01:03:20.551Z,6.60
2019-05-25T01:05:51.429Z,6.75
2019-05-25T01:08:22.028Z,6.33
2019-05-25T01:10:52.248Z,7.22
2019-05-25T01:13:22.408Z,6.50
2019-05-25T01:15:52.625Z,6.87
2019-05-25T01:18:24.039Z,7.10
2019-05-25T01:20:54.167Z,6.55
2019-05-25T01:23:24.379Z,7.37
2019-05-25T01:25:54.676Z,7.37
2019-05-25T01:28:27.148Z,6.95
2019-05-25T01:30:57.236Z,7.80
2019-05-25T01:33:28.953Z,7.67
2019-05-25T01:35:59.376Z,7.33
2019-05-25T01:38:32.055Z,7.47
2019-05-25T01:41:02.217Z,7.70
2019-05-25T01:43:32.716Z,7.35
2019-05-25T01:46:03.591Z,7.75
2019-05-25T01:48:35.795Z,6.70
2019-05-25T01:51:07.251Z,6.50
2019-05-25T01:53:37.486Z,6.40
2019-05-25T01:56:08.504Z,6.80
2019-05-25T01:58:38.661Z,7.33
2019-05-25T02:01:08.877Z,6.65
2019-05-25T02:03:43.248Z,6.55
2019-05-25T02:06:15.052Z,7.33
2019-05-25T02:08:45.252Z,6.37
2019-05-25T02:11:17.771Z,6.87
2019-05-25T02:13:48.024Z,7.45
2019-05-25T02:16:22.950Z,7.50
2019-05-25T02:18:53.185Z,7.30
2019-05-25T02:21:24.789Z,7.58
2019-05-25T02:23:56.487Z,6.70
2019-05-25T02:26:26.810Z,6.87
2019-05-25T02:28:56.969Z,7.45
2019-05-25T02:31:28.953Z,7.10
2019-05-25T02:34:01.063Z,6.67
2019-05-25T02:36:32.042Z,7.20
2019-05-25T02:39:05.583Z,7.42
2019-05-25T02:41:36.334Z,7.35
2019-05-25T02:44:06.686Z,7.60
2019-05-25T02:46:37.287Z,8.60
2019-05-25T02:49:09.676Z,7.60
2019-05-25T02:51:39.993Z,7.78
2019-05-25T02:54:11.145Z,7.65
2019-05-25T02:56:41.739Z,7.10
2019-05-25T02:59:13.618Z,9.03
2019-05-25T03:01:47.476Z,7.58
2019-05-25T03:04:21.220Z,7.70
2019-05-25T03:06:57.397Z,7.55
2019-05-25T03:09:29.752Z,6.90
2019-05-25T03:12:06.970Z,8.00
2019-05-25T03:14:37.124Z,7.85
2019-05-25T03:17:12.612Z,8.53
2019-05-25T03:19:43.624Z,7.85
2019-05-25T03:22:14.585Z,7.75
2019-05-25T03:24:50.492Z,7.87
2019-05-25T03:27:21.651Z,7.37
2019-05-25T03:29:53.484Z,7.87
2019-05-25T03:32:25.889Z,8.13
2019-05-25T03:34:55.981Z,7.53
2019-05-25T03:37:27.560Z,6.75
2019-05-25T03:39:57.766Z,7.47
2019-05-25T03:42:28.014Z,6.58
2019-05-25T03:44:58.186Z,7.85
2019-05-25T03:47:30.980Z,8.43
2019-05-25T03:50:01.124Z,8.00
2019-05-25T03:52:31.605Z,7.28
2019-05-25T03:55:03.193Z,8.53
2019-05-25T03:57:34.099Z,7.70
2019-05-25T04:00:08.861Z,7.80
2019-05-25T04:02:41.678Z,8.53
2019-05-25T04:05:15.780Z,7.00
2019-05-25T04:07:46.697Z,8.23
2019-05-25T04:10:18.448Z,9.28
2019-05-25T04:12:49.114Z,8.28
2019-05-25T04:15:21.205Z,7.53
2019-05-25T04:17:54.908Z,8.03
2019-05-25T04:20:28.069Z,7.00
2019-05-25T04:23:01.262Z,7.30
2019-05-25T04:25:36.736Z,8.53
2019-05-25T04:28:06.936Z,8.53
2019-05-25T04:30:38.113Z,9.25
2019-05-25T04:33:11.245Z,7.80
2019-05-25T04:35:43.805Z,8.18
2019-05-25T04:38:16.257Z,8.20
2019-05-25T04:40:46.696Z,8.25
2019-05-25T04:43:18.487Z,8.15
2019-05-25T04:45:48.671Z,8.55
2019-05-25T04:48:20.172Z,8.05
2019-05-25T04:50:51.230Z,8.80
2019-05-25T04:53:21.435Z,8.03
2019-05-25T04:55:51.580Z,7.05
2019-05-25T04:58:22.075Z,7.80
2019-05-25T05:00:53.568Z,7.67
2019-05-25T05:03:26.862Z,7.78
2019-05-25T05:05:57.098Z,8.23
2019-05-25T05:08:27.567Z,8.00
2019-05-25T05:10:58.564Z,8.63
2019-05-25T05:13:29.899Z,7.58
2019-05-25T05:16:01.166Z,7.17
2019-05-25T05:18:33.548Z,8.05
2019-05-25T05:21:05.053Z,7.45
2019-05-25T05:23:39.432Z,8.78
2019-05-25T05:26:09.558Z,7.80
2019-05-25T05:28:42.493Z,8.58
2019-05-25T05:31:23.301Z,8.03
2019-05-25T05:33:49.841Z,8.60
2019-05-25T05:36:21.321Z,8.48
2019-05-25T05:38:53.386Z,6.90
2019-05-25T05:41:31.237Z,8.90
2019-05-25T05:44:06.789Z,8.75
2019-05-25T05:46:41.780Z,8.20
2019-05-25T05:49:15.589Z,9.35
2019-05-25T05:51:50.671Z,8.78
2019-05-25T05:54:23.939Z,8.90
2019-05-25T05:57:11.053Z,9.08
2019-05-25T05:59:28.529Z,7.80
2019-05-25T06:02:00.577Z,9.15
2019-05-25T06:04:35.391Z,10.23
2019-05-25T06:07:06.814Z,9.93
2019-05-25T06:09:37.211Z,11.65
2019-05-25T06:12:07.409Z,9.20
2019-05-25T06:14:39.012Z,12.07
2019-05-25T06:17:10.943Z,10.18
2019-05-25T06:19:41.071Z,10.98
2019-05-25T06:22:11.193Z,10.45
2019-05-25T06:24:43.496Z,9.65
2019-05-25T06:27:26.380Z,8.73
2019-05-25T06:29:45.459Z,9.68
2019-05-25T06:32:17.141Z,9.63
2019-05-25T06:34:48.974Z,8.88
2019-05-25T06:37:19.435Z,9.48
2019-05-25T06:39:49.773Z,9.83
2019-05-25T06:42:20.832Z,9.53
2019-05-25T06:44:55.989Z,10.05
2019-05-25T06:47:32.076Z,9.60
2019-05-25T06:50:07.874Z,9.40
2019-05-25T06:52:43.648Z,10.40
2019-05-25T06:56:02.196Z,9.75
2019-05-25T06:58:34.377Z,9.20
2019-05-25T07:01:07.677Z,8.73
2019-05-25T07:03:42.933Z,8.58
2019-05-25T07:06:16.661Z,7.92
2019-05-25T07:08:50.870Z,9.40
2019-05-25T07:11:23.400Z,9.15
2019-05-25T07:13:54.161Z,7.67
2019-05-25T07:16:25.390Z,7.20
2019-05-25T07:18:57.902Z,9.43
2019-05-25T07:21:32.168Z,8.95
2019-05-25T07:24:23.746Z,8.23
2019-05-25T07:26:56.634Z,8.40
2019-05-25T07:29:27.729Z,8.38
2019-05-25T07:32:02.709Z,8.93
2019-05-25T07:34:34.726Z,8.25
2019-05-25T07:37:07.740Z,7.80
2019-05-25T07:39:38.199Z,7.85
2019-05-25T07:42:15.372Z,8.98
2019-05-25T07:44:45.522Z,8.73
2019-05-25T07:47:24.863Z,8.28
2019-05-25T07:49:55.099Z,8.25
2019-05-25T07:52:25.641Z,8.23
2019-05-25T07:54:57.286Z,7.97
2019-05-25T07:57:32.465Z,7.43
2019-05-25T08:00:09.524Z,8.05
2019-05-25T08:02:41.322Z,7.85
2019-05-25T08:05:12.799Z,7.23
2019-05-25T08:07:43.328Z,7.35
2019-05-25T08:10:16.786Z,8.25
2019-05-25T08:12:46.933Z,6.63
2019-05-25T08:15:19.282Z,7.12
2019-05-25T08:17:52.369Z,6.87
2019-05-25T08:20:22.821Z,7.53
2019-05-25T08:23:01.297Z,5.92
2019-05-25T08:25:31.871Z,6.77
2019-05-25T08:28:02.023Z,6.28
2019-05-25T08:30:33.649Z,7.00
2019-05-25T08:33:06.939Z,6.83
2019-05-25T08:35:37.789Z,6.60
2019-05-25T08:38:07.900Z,6.47
2019-05-25T08:40:38.065Z,6.80
2019-05-25T08:43:08.184Z,6.60
2019-05-25T08:45:38.357Z,5.57
2019-05-25T08:48:08.507Z,5.77
2019-05-25T08:50:43.843Z,5.90
2019-05-25T08:53:15.483Z,5.87
2019-05-25T08:55:51.298Z,6.73
2019-05-25T08:58:47.991Z,7.80
2019-05-25T09:01:08.933Z,6.93
2019-05-25T09:03:39.116Z,8.40
2019-05-25T09:06:09.825Z,7.00
2019-05-25T09:08:40.154Z,7.67
2019-05-25T09:11:10.878Z,8.33
2019-05-25T09:13:41.522Z,9.40
2019-05-25T09:16:11.706Z,8.73
2019-05-25T09:18:42.386Z,8.03
2019-05-25T09:21:12.653Z,6.77
2019-05-25T09:23:48.172Z,6.37
2019-05-25T09:26:16.719Z,6.27
2019-05-25T09:29:03.188Z,7.80
2019-05-25T09:31:20.398Z,6.07
2019-05-25T09:33:50.522Z,5.47
2019-05-25T09:36:21.393Z,5.97
2019-05-25T09:38:53.848Z,6.17
2019-05-25T09:41:24.344Z,6.20
2019-05-25T09:43:58.167Z,5.53
2019-05-25T09:46:28.675Z,6.87
2019-05-25T09:48:58.948Z,5.67
2019-05-25T09:51:29.542Z,6.83
2019-05-25T09:54:02.429Z,5.57
2019-05-25T09:56:34.702Z,6.77
2019-05-25T09:59:19.175Z,6.20
2019-05-25T10:01:43.805Z,6.67
2019-05-25T10:04:15.641Z,7.03
2019-05-25T10:06:50.887Z,7.00
2019-05-25T10:09:24.442Z,4.67
2019-05-25T10:11:57.703Z,5.03
2019-05-25T10:14:37.933Z,3.70
2019-05-25T10:17:11.805Z,6.40
2019-05-25T10:19:54.798Z,8.68
2019-05-25T10:22:31.387Z,11.22
2019-05-25T10:25:02.606Z,11.00
2019-05-25T10:27:39.547Z,14.75
2019-05-25T10:30:17.976Z,17.55
2019-05-25T10:32:50.927Z,17.77
2019-05-25T10:35:23.294Z,16.85
2019-05-25T10:37:56.735Z,14.60
2019-05-25T10:40:27.972Z,18.52
2019-05-25T10:43:01.083Z,19.57
2019-05-25T10:45:32.757Z,18.87
2019-05-25T10:48:05.920Z,18.30
2019-05-25T10:50:36.062Z,14.25
2019-05-25T10:53:06.935Z,11.65
2019-05-25T10:55:38.424Z,10.05
2019-05-25T10:58:10.575Z,10.40
2019-05-25T11:00:42.760Z,9.25
2019-05-25T11:03:14.332Z,8.65
2019-05-25T11:05:45.112Z,6.28
2019-05-25T11:08:20.533Z,4.58
2019-05-25T11:11:08.306Z,4.87
2019-05-25T11:13:41.733Z,5.20
2019-05-25T11:16:20.056Z,5.22
2019-05-25T11:18:55.292Z,6.50
2019-05-25T11:24:12.685Z,3.85
2019-05-25T11:26:44.475Z,3.50
2019-05-25T11:29:20.446Z,3.10
2019-05-25T11:31:58.443Z,3.62
2019-05-25T11:34:30.148Z,2.50
2019-05-25T11:37:02.859Z,2.95
2019-05-25T11:39:39.136Z,2.90
2019-05-25T11:42:09.667Z,3.05
2019-05-25T11:44:41.845Z,2.47
2019-05-25T11:47:17.167Z,2.90
2019-05-25T11:49:47.299Z,2.85
2019-05-25T11:52:18.178Z,2.17
2019-05-25T11:54:48.675Z,2.80
2019-05-25T11:57:23.398Z,2.30
2019-05-25T11:59:53.998Z,2.42
2019-05-25T12:02:46.300Z,3.27
2019-05-25T12:05:18.558Z,2.27
2019-05-25T12:07:55.651Z,4.67
2019-05-25T12:10:29.916Z,1.50
2019-05-25T12:13:00.828Z,1.62
2019-05-25T12:15:35.191Z,1.60
2019-05-25T12:18:06.551Z,2.20
2019-05-25T12:20:58.690Z,1.72
2019-05-25T12:23:30.808Z,1.60
2019-05-25T12:26:14.867Z,1.55
2019-05-25T12:28:49.380Z,1.50
2019-05-25T12:31:25.285Z,1.33
2019-05-25T12:33:57.967Z,1.50
2019-05-25T12:36:32.868Z,2.25
2019-05-25T12:39:11.073Z,1.67
2019-05-25T12:41:43.548Z,1.27
2019-05-25T12:44:20.219Z,1.60
2019-05-25T12:46:52.681Z,1.70
2019-05-25T12:49:29.654Z,1.67
2019-05-25T12:55:04.707Z,2.07
2019-05-25T13:00:32.581Z,1.73
2019-05-25T13:03:10.352Z,2.07
2019-05-25T13:05:44.564Z,1.20
2019-05-25T13:08:23.300Z,1.60
2019-05-25T13:10:56.581Z,1.57
2019-05-25T13:13:30.606Z,1.80
2019-05-25T13:16:20.590Z,1.70
2019-05-25T13:18:56.903Z,1.73
2019-05-25T13:21:31.718Z,1.40
2019-05-25T13:24:06.052Z,1.50
2019-05-25T13:26:40.163Z,1.80
2019-05-25T13:29:31.527Z,1.60
2019-05-25T13:32:06.639Z,1.50
2019-05-25T13:34:39.973Z,1.43
2019-05-25T13:37:17.727Z,2.10
2019-05-25T13:39:59.307Z,2.67
2019-05-25T13:42:33.045Z,2.67
2019-05-25T13:45:06.256Z,2.50
2019-05-25T13:47:36.787Z,1.90
2019-05-25T13:50:12.484Z,1.40
2019-05-25T13:52:43.419Z,1.50
2019-05-25T13:55:15.260Z,1.40
2019-05-25T13:57:55.058Z,1.70
2019-05-25T14:00:29.024Z,1.80
2019-05-25T14:03:04.174Z,2.20
2019-05-25T14:05:40.562Z,2.17
2019-05-25T14:08:18.235Z,1.63
2019-05-25T14:10:53.303Z,1.33
2019-05-25T14:13:26.936Z,1.63
2019-05-25T14:16:08.862Z,1.93
2019-05-25T14:18:44.092Z,1.47
2019-05-25T14:21:20.055Z,1.57
2019-05-25T14:23:54.442Z,1.60
2019-05-25T14:26:34.578Z,1.30
2019-05-25T14:29:26.376Z,1.27
2019-05-25T14:32:24.326Z,3.40
2019-05-25T14:34:58.466Z,5.97
2019-05-25T14:37:35.759Z,7.10
2019-05-25T14:40:14.143Z,7.70
2019-05-25T14:42:50.043Z,7.55
2019-05-25T14:45:23.271Z,7.55
2019-05-25T14:47:58.013Z,8.15
2019-05-25T14:50:37.555Z,7.70
2019-05-25T14:53:13.071Z,7.75
2019-05-25T14:55:50.508Z,9.00
2019-05-25T14:58:33.650Z,8.88
2019-05-25T15:01:16.224Z,9.23
2019-05-25T15:03:51.369Z,8.78
2019-05-25T15:06:28.062Z,8.50
2019-05-25T15:09:05.877Z,7.17
2019-05-25T15:11:45.065Z,7.78
2019-05-25T15:14:19.452Z,7.97
2019-05-25T15:17:12.596Z,6.22
2019-05-25T15:19:49.555Z,7.72
2019-05-25T15:22:22.298Z,7.42
2019-05-25T15:24:54.867Z,8.10
2019-05-25T15:27:31.564Z,9.00
2019-05-25T15:30:06.334Z,8.10
2019-05-25T15:32:42.145Z,7.08
2019-05-25T15:35:13.780Z,9.53
2019-05-25T15:37:47.800Z,9.63
2019-05-25T15:40:19.715Z,8.60
2019-05-25T15:42:53.296Z,9.85
2019-05-25T15:45:23.428Z,9.83
2019-05-25T15:47:54.075Z,11.85
2019-05-25T15:50:26.203Z,12.23
2019-05-25T15:52:59.076Z,12.65
2019-05-25T15:55:35.089Z,17.85
2019-05-25T15:58:08.794Z,17.55
2019-05-25T16:00:47.076Z,11.93
2019-05-25T16:03:19.477Z,11.50
2019-05-25T16:05:52.115Z,12.50
2019-05-25T16:08:23.760Z,10.72
2019-05-25T16:10:58.668Z,11.30
2019-05-25T16:13:45.842Z,9.05
2019-05-25T16:16:20.137Z,8.35
2019-05-25T16:18:59.187Z,8.70
2019-05-25T16:21:43.406Z,7.72
2019-05-25T16:24:26.323Z,6.85
2019-05-25T16:27:05.286Z,6.35
2019-05-25T16:29:46.432Z,6.90
2019-05-25T16:32:22.416Z,6.97
2019-05-25T16:35:08.024Z,6.03
2019-05-25T16:37:42.268Z,5.92
2019-05-25T16:40:25.867Z,6.80
2019-05-25T16:43:02.599Z,7.95
2019-05-25T16:45:40.202Z,7.15
2019-05-25T16:48:12.122Z,5.97
2019-05-25T16:50:55.809Z,6.60
2019-05-25T16:53:35.784Z,5.40
2019-05-25T16:56:08.613Z,5.95
2019-05-25T16:58:51.154Z,4.67
2019-05-25T17:01:22.272Z,5.03
2019-05-25T17:03:52.405Z,4.83
2019-05-25T17:06:22.629Z,5.65
2019-05-25T17:08:56.153Z,5.00
2019-05-25T17:11:29.299Z,4.12
2019-05-25T17:14:07.613Z,6.22
2019-05-25T17:16:42.496Z,4.55
2019-05-25T17:19:16.372Z,3.97
2019-05-25T17:21:55.328Z,4.73
2019-05-25T17:24:30.142Z,5.10
2019-05-25T17:27:06.209Z,5.20
2019-05-25T17:29:43.462Z,4.20
2019-05-25T17:32:22.159Z,5.42
2019-05-25T17:34:55.492Z,4.00
2019-05-25T17:40:43.267Z,5.33
2019-05-25T17:43:18.769Z,6.45
2019-05-25T17:45:52.071Z,5.53
2019-05-25T17:48:32.272Z,6.10
2019-05-25T17:51:02.957Z,5.25
2019-05-25T17:53:39.331Z,5.33
2019-05-25T17:56:19.234Z,7.00
2019-05-25T17:58:58.455Z,6.22
2019-05-25T18:01:28.848Z,6.55
2019-05-25T18:04:07.735Z,5.45
2019-05-25T18:06:32.299Z,5.92
2019-05-25T18:09:06.676Z,5.87
2019-05-25T18:11:43.908Z,5.17
2019-05-25T18:14:15.486Z,5.05
2019-05-25T18:16:51.079Z,5.50
2019-05-25T18:19:24.733Z,5.20
2019-05-25T18:21:59.116Z,5.92
2019-05-25T18:24:44.736Z,5.28
2019-05-25T18:27:16.225Z,5.50
2019-05-25T18:29:47.702Z,6.70
2019-05-25T18:32:21.057Z,6.37
2019-05-25T18:34:51.336Z,6.33
2019-05-25T18:37:25.456Z,6.08
2019-05-25T18:39:57.263Z,7.35
2019-05-25T18:42:30.642Z,6.62
2019-05-25T18:45:03.373Z,6.62
2019-05-25T18:47:34.445Z,6.92
2019-05-25T18:50:07.255Z,7.15
2019-05-25T18:52:40.587Z,6.60
2019-05-25T18:55:12.560Z,7.05
2019-05-25T18:57:45.144Z,7.78
2019-05-25T19:00:22.748Z,7.45
2019-05-25T19:02:57.374Z,6.47
2019-05-25T19:05:28.488Z,7.22
2019-05-25T19:07:59.570Z,7.08
2019-05-25T19:10:33.714Z,6.87
2019-05-25T19:13:08.204Z,6.80
2019-05-25T19:15:39.826Z,7.70
2019-05-25T19:18:11.368Z,7.40
2019-05-25T19:20:42.002Z,7.10
2019-05-25T19:23:17.765Z,7.65
2019-05-25T19:25:52.945Z,8.18
2019-05-25T19:28:27.610Z,8.18
2019-05-25T19:31:01.812Z,8.30
2019-05-25T19:33:38.073Z,8.58
2019-05-25T19:36:13.061Z,7.97
2019-05-25T19:38:43.410Z,9.00
2019-05-25T19:41:28.887Z,7.87
2019-05-25T19:43:59.044Z,8.15
2019-05-25T19:46:32.616Z,7.75
2019-05-25T19:49:08.137Z,8.55
2019-05-25T19:51:42.210Z,8.85
2019-05-25T19:54:19.472Z,8.73
2019-05-25T19:57:03.393Z,8.30
2019-05-25T19:59:41.078Z,8.83
2019-05-25T20:09:25.744Z,8.55
2019-05-25T20:11:57.973Z,8.65
2019-05-25T20:14:35.746Z,7.72
2019-05-25T20:17:13.447Z,8.70
2019-05-25T20:19:49.392Z,8.38
2019-05-25T20:22:27.722Z,8.10
2019-05-25T20:25:01.676Z,8.13
2019-05-25T20:28:06.416Z,8.65
2019-05-25T20:30:41.325Z,8.00
2019-05-25T20:33:26.394Z,8.13
2019-05-25T20:35:50.755Z,7.75
2019-05-25T20:38:22.796Z,8.95
2019-05-25T20:40:59.548Z,10.50
2019-05-25T20:43:34.263Z,7.70
2019-05-25T20:46:17.703Z,7.47
2019-05-25T20:48:51.175Z,7.58
2019-05-25T20:51:23.217Z,7.45
2019-05-25T20:53:57.238Z,6.75
2019-05-25T20:56:34.696Z,8.40
2019-05-25T20:59:05.227Z,8.28
2019-05-25T21:01:36.240Z,9.43
2019-05-25T21:04:06.711Z,9.75
2019-05-25T21:06:37.117Z,10.32
2019-05-25T21:09:08.562Z,8.75
2019-05-25T21:11:38.753Z,9.10
2019-05-25T21:14:09.629Z,10.78
2019-05-25T21:16:39.772Z,9.18
2019-05-25T21:19:11.428Z,9.30
2019-05-25T21:21:43.274Z,8.70
2019-05-25T21:24:13.395Z,10.18
2019-05-25T21:26:43.812Z,10.55
2019-05-25T21:29:13.940Z,11.28
2019-05-25T21:31:48.120Z,10.30
2019-05-25T21:34:20.549Z,9.83
2019-05-25T21:36:50.658Z,9.78
2019-05-25T21:39:30.978Z,9.05
2019-05-25T21:42:03.619Z,10.85
2019-05-25T21:44:37.610Z,10.70
2019-05-25T21:47:15.673Z,10.15
2019-05-25T21:49:48.064Z,11.15
2019-05-25T21:52:18.487Z,10.70
2019-05-25T21:54:51.573Z,11.90
2019-05-25T21:57:23.743Z,12.82
2019-05-25T21:59:53.810Z,9.45
2019-05-25T22:02:24.042Z,11.30
2019-05-25T22:04:56.252Z,10.68
2019-05-25T22:07:26.563Z,9.65
2019-05-25T22:09:58.077Z,10.18
2019-05-25T22:12:30.168Z,12.10
2019-05-25T22:15:02.351Z,9.63
2019-05-25T22:17:33.137Z,10.10
2019-05-25T22:20:03.516Z,10.70
2019-05-25T22:22:33.890Z,10.53
2019-05-25T22:25:06.648Z,9.83
2019-05-25T22:27:36.863Z,11.60
2019-05-25T22:30:07.219Z,11.30
2019-05-25T22:32:39.692Z,11.22
2019-05-25T22:35:11.365Z,12.33
2019-05-25T22:37:42.725Z,16.42
2019-05-25T22:40:13.273Z,17.82
2019-05-25T22:42:43.459Z,15.80
2019-05-25T22:45:13.832Z,11.88
2019-05-25T22:47:44.042Z,13.10
2019-05-25T22:50:16.488Z,10.18
2019-05-25T22:52:46.585Z,12.75
2019-05-25T22:55:16.945Z,11.70
2019-05-25T22:57:49.115Z,10.38
2019-05-25T23:00:22.479Z,11.50
2019-05-25T23:02:52.616Z,11.70
2019-05-25T23:05:23.797Z,10.35
2019-05-25T23:07:53.887Z,10.63
2019-05-25T23:10:24.615Z,9.20
2019-05-25T23:12:54.774Z,10.98
2019-05-25T23:15:25.432Z,9.00
2019-05-25T23:17:55.629Z,10.18
2019-05-25T23:20:25.959Z,13.28
2019-05-25T23:22:56.399Z,11.12
2019-05-25T23:25:26.580Z,10.43
2019-05-25T23:27:58.152Z,10.55
2019-05-25T23:30:28.703Z,10.98
2019-05-25T23:32:59.252Z,10.70
2019-05-25T23:35:29.430Z,8.85
2019-05-25T23:38:03.313Z,9.08
2019-05-25T23:40:31.425Z,10.20
2019-05-25T23:43:02.085Z,10.10
2019-05-25T23:45:32.284Z,10.88
2019-05-25T23:48:02.422Z,10.53
2019-05-25T23:50:32.607Z,10.18
2019-05-25T23:53:03.116Z,11.03
2019-05-25T23:55:33.288Z,11.00
2019-05-25T23:58:03.565Z,9.70
